Terminal Aerodrome Forecast
Issued by NWS

Home | Current Version | Previous Version | Graphics & Text | Print | Product List | Glossary On
Versions: 1 2 3 4 5 6 7 8 9 10 11 12 13 14
000
FTUS43 KMPX 120525
TAFRWF
TAF
KRWF 120525Z 1206/1306 32011G17KT P6SM SKC
     FM120900 31008KT P6SM BKN100
     FM121400 27006KT P6SM BKN025 OVC100
     FM121800 23008KT P6SM BKN025 OVC050
     FM122300 19008KT P6SM SCT250=

USA.gov is the U.S. government's official web portal to all federal, state and local government web resources and services.